sensor_id;sensor_type;location;lat;lon;timestamp;P1;durP1;ratioP1;P2;durP2;ratioP2
8293;SDS011;4185;41.506;24.938;2023-07-02T00:01:32;10.33;;;6.00;;
8293;SDS011;4185;41.506;24.938;2023-07-02T00:04:01;7.73;;;5.60;;
8293;SDS011;4185;41.506;24.938;2023-07-02T00:06:27;8.03;;;5.53;;
8293;SDS011;4185;41.506;24.938;2023-07-02T00:08:57;8.77;;;5.70;;
8293;SDS011;4185;41.506;24.938;2023-07-02T00:11:24;9.03;;;5.67;;
8293;SDS011;4185;41.506;24.938;2023-07-02T00:13:51;7.50;;;5.73;;
8293;SDS011;4185;41.506;24.938;2023-07-02T00:16:17;10.20;;;5.93;;
8293;SDS011;4185;41.506;24.938;2023-07-02T00:18:44;8.17;;;5.77;;
8293;SDS011;4185;41.506;24.938;2023-07-02T00:21:18;6.60;;;5.80;;
8293;SDS011;4185;41.506;24.938;2023-07-02T00:23:45;7.33;;;5.30;;
8293;SDS011;4185;41.506;24.938;2023-07-02T00:26:12;8.77;;;5.80;;
8293;SDS011;4185;41.506;24.938;2023-07-02T00:28:39;8.10;;;5.67;;
8293;SDS011;4185;41.506;24.938;2023-07-02T00:31:06;8.67;;;5.23;;
8293;SDS011;4185;41.506;24.938;2023-07-02T00:33:33;8.67;;;5.80;;
8293;SDS011;4185;41.506;24.938;2023-07-02T00:36:00;7.73;;;5.30;;
8293;SDS011;4185;41.506;24.938;2023-07-02T00:38:28;7.50;;;5.77;;
8293;SDS011;4185;41.506;24.938;2023-07-02T00:40:55;9.27;;;6.40;;
8293;SDS011;4185;41.506;24.938;2023-07-02T00:43:22;8.70;;;5.70;;
8293;SDS011;4185;41.506;24.938;2023-07-02T00:45:49;7.10;;;5.70;;
8293;SDS011;4185;41.506;24.938;2023-07-02T00:48:16;7.60;;;5.77;;
8293;SDS011;4185;41.506;24.938;2023-07-02T00:50:42;7.27;;;5.37;;
8293;SDS011;4185;41.506;24.938;2023-07-02T00:53:09;7.07;;;5.57;;
8293;SDS011;4185;41.506;24.938;2023-07-02T00:55:37;8.77;;;5.90;;
8293;SDS011;4185;41.506;24.938;2023-07-02T00:58:04;7.23;;;5.50;;
8293;SDS011;4185;41.506;24.938;2023-07-02T01:00:33;9.77;;;5.80;;
8293;SDS011;4185;41.506;24.938;2023-07-02T01:03:00;9.53;;;5.10;;
8293;SDS011;4185;41.506;24.938;2023-07-02T01:05:27;9.10;;;6.07;;
8293;SDS011;4185;41.506;24.938;2023-07-02T01:08:00;7.03;;;5.70;;
8293;SDS011;4185;41.506;24.938;2023-07-02T01:10:27;9.60;;;5.77;;
8293;SDS011;4185;41.506;24.938;2023-07-02T01:12:57;8.63;;;5.97;;
8293;SDS011;4185;41.506;24.938;2023-07-02T01:15:27;7.90;;;5.70;;
8293;SDS011;4185;41.506;24.938;2023-07-02T01:17:54;8.83;;;5.80;;
8293;SDS011;4185;41.506;24.938;2023-07-02T01:20:23;8.53;;;6.30;;
8293;SDS011;4185;41.506;24.938;2023-07-02T01:22:52;7.30;;;5.50;;
8293;SDS011;4185;41.506;24.938;2023-07-02T01:25:19;7.70;;;5.83;;
8293;SDS011;4185;41.506;24.938;2023-07-02T01:27:50;7.13;;;5.80;;
8293;SDS011;4185;41.506;24.938;2023-07-02T01:30:18;7.50;;;5.70;;
8293;SDS011;4185;41.506;24.938;2023-07-02T01:32:45;13.20;;;6.67;;
8293;SDS011;4185;41.506;24.938;2023-07-02T01:35:12;7.57;;;5.53;;
8293;SDS011;4185;41.506;24.938;2023-07-02T01:37:40;8.37;;;6.00;;
8293;SDS011;4185;41.506;24.938;2023-07-02T01:40:07;8.63;;;6.23;;
8293;SDS011;4185;41.506;24.938;2023-07-02T01:42:34;9.20;;;6.17;;
8293;SDS011;4185;41.506;24.938;2023-07-02T01:45:01;7.30;;;5.60;;
8293;SDS011;4185;41.506;24.938;2023-07-02T01:47:28;7.50;;;5.07;;
8293;SDS011;4185;41.506;24.938;2023-07-02T01:49:55;8.27;;;5.37;;
8293;SDS011;4185;41.506;24.938;2023-07-02T01:52:21;7.67;;;5.20;;
8293;SDS011;4185;41.506;24.938;2023-07-02T01:54:49;8.87;;;5.23;;
8293;SDS011;4185;41.506;24.938;2023-07-02T01:57:17;8.80;;;6.13;;
8293;SDS011;4185;41.506;24.938;2023-07-02T01:59:44;8.33;;;5.23;;
8293;SDS011;4185;41.506;24.938;2023-07-02T02:02:10;9.97;;;5.67;;
8293;SDS011;4185;41.506;24.938;2023-07-02T02:04:37;9.53;;;5.57;;
8293;SDS011;4185;41.506;24.938;2023-07-02T02:07:04;9.27;;;6.00;;
8293;SDS011;4185;41.506;24.938;2023-07-02T02:09:31;11.83;;;6.07;;
8293;SDS011;4185;41.506;24.938;2023-07-02T02:11:59;8.53;;;5.70;;
8293;SDS011;4185;41.506;24.938;2023-07-02T02:14:26;8.57;;;5.80;;
8293;SDS011;4185;41.506;24.938;2023-07-02T02:16:52;8.07;;;5.37;;
8293;SDS011;4185;41.506;24.938;2023-07-02T02:19:19;6.53;;;4.80;;
8293;SDS011;4185;41.506;24.938;2023-07-02T02:21:46;8.60;;;5.60;;
8293;SDS011;4185;41.506;24.938;2023-07-02T02:24:12;6.67;;;4.83;;
8293;SDS011;4185;41.506;24.938;2023-07-02T02:26:39;7.10;;;5.47;;
8293;SDS011;4185;41.506;24.938;2023-07-02T02:29:07;7.10;;;4.67;;
8293;SDS011;4185;41.506;24.938;2023-07-02T02:31:34;6.60;;;4.97;;
8293;SDS011;4185;41.506;24.938;2023-07-02T02:34:01;8.80;;;4.90;;
8293;SDS011;4185;41.506;24.938;2023-07-02T02:36:28;7.23;;;4.83;;
8293;SDS011;4185;41.506;24.938;2023-07-02T02:38:54;9.87;;;5.10;;
8293;SDS011;4185;41.506;24.938;2023-07-02T02:41:21;6.97;;;5.13;;
8293;SDS011;4185;41.506;24.938;2023-07-02T02:43:48;6.10;;;4.90;;
8293;SDS011;4185;41.506;24.938;2023-07-02T02:46:20;7.73;;;5.40;;
8293;SDS011;4185;41.506;24.938;2023-07-02T02:48:49;9.40;;;5.03;;
8293;SDS011;4185;41.506;24.938;2023-07-02T02:51:16;7.10;;;5.27;;
8293;SDS011;4185;41.506;24.938;2023-07-02T02:53:43;6.90;;;5.33;;
8293;SDS011;4185;41.506;24.938;2023-07-02T02:56:11;8.63;;;5.67;;
8293;SDS011;4185;41.506;24.938;2023-07-02T02:58:38;9.30;;;6.33;;
8293;SDS011;4185;41.506;24.938;2023-07-02T03:01:04;11.20;;;6.10;;
8293;SDS011;4185;41.506;24.938;2023-07-02T03:03:36;8.80;;;6.27;;
8293;SDS011;4185;41.506;24.938;2023-07-02T03:06:04;11.57;;;6.73;;
8293;SDS011;4185;41.506;24.938;2023-07-02T03:08:31;10.10;;;7.00;;
8293;SDS011;4185;41.506;24.938;2023-07-02T03:10:58;8.23;;;6.50;;
8293;SDS011;4185;41.506;24.938;2023-07-02T03:13:24;8.03;;;5.97;;
8293;SDS011;4185;41.506;24.938;2023-07-02T03:15:51;8.03;;;5.87;;
8293;SDS011;4185;41.506;24.938;2023-07-02T03:18:18;9.70;;;6.40;;
8293;SDS011;4185;41.506;24.938;2023-07-02T03:20:46;8.77;;;5.97;;
8293;SDS011;4185;41.506;24.938;2023-07-02T03:23:13;8.53;;;5.40;;
8293;SDS011;4185;41.506;24.938;2023-07-02T03:25:39;7.83;;;5.30;;
8293;SDS011;4185;41.506;24.938;2023-07-02T03:28:06;10.30;;;5.10;;
8293;SDS011;4185;41.506;24.938;2023-07-02T03:30:33;7.17;;;5.13;;
8293;SDS011;4185;41.506;24.938;2023-07-02T03:33:00;7.33;;;5.30;;
8293;SDS011;4185;41.506;24.938;2023-07-02T03:35:26;8.63;;;5.80;;
8293;SDS011;4185;41.506;24.938;2023-07-02T03:37:54;8.80;;;6.13;;
8293;SDS011;4185;41.506;24.938;2023-07-02T03:40:22;7.27;;;5.50;;
8293;SDS011;4185;41.506;24.938;2023-07-02T03:42:49;8.80;;;5.50;;
8293;SDS011;4185;41.506;24.938;2023-07-02T03:45:16;8.00;;;5.90;;
8293;SDS011;4185;41.506;24.938;2023-07-02T03:47:42;7.43;;;5.50;;
8293;SDS011;4185;41.506;24.938;2023-07-02T03:50:09;8.13;;;5.70;;
8293;SDS011;4185;41.506;24.938;2023-07-02T03:52:36;7.90;;;5.23;;
8293;SDS011;4185;41.506;24.938;2023-07-02T03:55:05;9.13;;;5.40;;
8293;SDS011;4185;41.506;24.938;2023-07-02T03:57:32;6.77;;;4.97;;
8293;SDS011;4185;41.506;24.938;2023-07-02T03:59:59;8.93;;;5.70;;
8293;SDS011;4185;41.506;24.938;2023-07-02T04:02:25;7.97;;;5.37;;
8293;SDS011;4185;41.506;24.938;2023-07-02T04:04:52;9.10;;;5.07;;
8293;SDS011;4185;41.506;24.938;2023-07-02T04:07:19;8.83;;;5.67;;
8293;SDS011;4185;41.506;24.938;2023-07-02T04:09:45;10.67;;;6.00;;
8293;SDS011;4185;41.506;24.938;2023-07-02T04:12:13;8.47;;;6.23;;
8293;SDS011;4185;41.506;24.938;2023-07-02T04:14:40;13.97;;;7.10;;
8293;SDS011;4185;41.506;24.938;2023-07-02T04:17:07;9.83;;;6.47;;
8293;SDS011;4185;41.506;24.938;2023-07-02T04:19:34;10.27;;;6.57;;
8293;SDS011;4185;41.506;24.938;2023-07-02T04:22:00;15.00;;;7.70;;
8293;SDS011;4185;41.506;24.938;2023-07-02T04:24:27;12.47;;;7.57;;
8293;SDS011;4185;41.506;24.938;2023-07-02T04:26:54;12.23;;;7.00;;
8293;SDS011;4185;41.506;24.938;2023-07-02T04:29:22;10.63;;;6.90;;
8293;SDS011;4185;41.506;24.938;2023-07-02T04:31:49;9.03;;;6.90;;
8293;SDS011;4185;41.506;24.938;2023-07-02T04:34:15;11.60;;;7.10;;
8293;SDS011;4185;41.506;24.938;2023-07-02T04:36:43;8.63;;;6.10;;
8293;SDS011;4185;41.506;24.938;2023-07-02T04:39:09;10.83;;;6.60;;
8293;SDS011;4185;41.506;24.938;2023-07-02T04:41:36;8.20;;;6.13;;
8293;SDS011;4185;41.506;24.938;2023-07-02T04:44:03;8.50;;;6.40;;
8293;SDS011;4185;41.506;24.938;2023-07-02T04:46:31;9.57;;;6.03;;
8293;SDS011;4185;41.506;24.938;2023-07-02T04:48:59;9.20;;;6.10;;
8293;SDS011;4185;41.506;24.938;2023-07-02T04:51:26;10.63;;;6.50;;
8293;SDS011;4185;41.506;24.938;2023-07-02T04:53:53;8.37;;;5.73;;
8293;SDS011;4185;41.506;24.938;2023-07-02T04:56:20;7.40;;;5.83;;
8293;SDS011;4185;41.506;24.938;2023-07-02T04:58:47;8.23;;;5.60;;
8293;SDS011;4185;41.506;24.938;2023-07-02T05:01:13;8.77;;;6.50;;
8293;SDS011;4185;41.506;24.938;2023-07-02T05:03:41;9.30;;;6.40;;
8293;SDS011;4185;41.506;24.938;2023-07-02T05:06:08;8.80;;;6.17;;
8293;SDS011;4185;41.506;24.938;2023-07-02T05:08:35;8.97;;;6.17;;
8293;SDS011;4185;41.506;24.938;2023-07-02T05:11:02;8.60;;;6.20;;
8293;SDS011;4185;41.506;24.938;2023-07-02T05:13:28;11.27;;;6.53;;
8293;SDS011;4185;41.506;24.938;2023-07-02T05:15:55;8.27;;;6.03;;
8293;SDS011;4185;41.506;24.938;2023-07-02T05:18:22;9.27;;;6.17;;
8293;SDS011;4185;41.506;24.938;2023-07-02T05:20:50;11.40;;;6.67;;
8293;SDS011;4185;41.506;24.938;2023-07-02T05:23:16;7.57;;;6.00;;
8293;SDS011;4185;41.506;24.938;2023-07-02T05:25:43;8.70;;;6.90;;
8293;SDS011;4185;41.506;24.938;2023-07-02T05:28:11;10.00;;;7.07;;
8293;SDS011;4185;41.506;24.938;2023-07-02T05:30:38;8.90;;;6.90;;
8293;SDS011;4185;41.506;24.938;2023-07-02T05:33:04;10.67;;;7.10;;
8293;SDS011;4185;41.506;24.938;2023-07-02T05:35:31;10.77;;;7.70;;
8293;SDS011;4185;41.506;24.938;2023-07-02T05:37:59;9.57;;;7.17;;
8293;SDS011;4185;41.506;24.938;2023-07-02T05:40:26;10.20;;;6.80;;
8293;SDS011;4185;41.506;24.938;2023-07-02T05:42:53;11.30;;;7.33;;
8293;SDS011;4185;41.506;24.938;2023-07-02T05:45:20;9.63;;;6.40;;
8293;SDS011;4185;41.506;24.938;2023-07-02T05:47:48;10.13;;;6.40;;
8293;SDS011;4185;41.506;24.938;2023-07-02T05:50:15;9.97;;;6.60;;
8293;SDS011;4185;41.506;24.938;2023-07-02T05:52:42;10.87;;;6.50;;
8293;SDS011;4185;41.506;24.938;2023-07-02T05:55:10;8.47;;;6.13;;
8293;SDS011;4185;41.506;24.938;2023-07-02T05:57:37;9.07;;;5.83;;
8293;SDS011;4185;41.506;24.938;2023-07-02T06:00:05;9.60;;;6.77;;
8293;SDS011;4185;41.506;24.938;2023-07-02T06:02:32;9.10;;;6.07;;
8293;SDS011;4185;41.506;24.938;2023-07-02T06:04:59;7.87;;;5.50;;
8293;SDS011;4185;41.506;24.938;2023-07-02T06:07:27;8.67;;;5.30;;
8293;SDS011;4185;41.506;24.938;2023-07-02T06:09:53;10.13;;;5.87;;
8293;SDS011;4185;41.506;24.938;2023-07-02T06:12:21;10.47;;;6.00;;
8293;SDS011;4185;41.506;24.938;2023-07-02T06:14:48;9.77;;;5.60;;
8293;SDS011;4185;41.506;24.938;2023-07-02T06:17:15;8.43;;;5.60;;
8293;SDS011;4185;41.506;24.938;2023-07-02T06:19:42;10.33;;;5.90;;
8293;SDS011;4185;41.506;24.938;2023-07-02T06:22:10;11.20;;;5.53;;
8293;SDS011;4185;41.506;24.938;2023-07-02T06:24:37;9.23;;;6.30;;
8293;SDS011;4185;41.506;24.938;2023-07-02T06:27:04;8.83;;;5.53;;
8293;SDS011;4185;41.506;24.938;2023-07-02T06:29:32;9.50;;;5.70;;
8293;SDS011;4185;41.506;24.938;2023-07-02T06:31:59;10.57;;;5.80;;
8293;SDS011;4185;41.506;24.938;2023-07-02T06:34:26;9.70;;;5.97;;
8293;SDS011;4185;41.506;24.938;2023-07-02T06:36:52;8.53;;;5.27;;
8293;SDS011;4185;41.506;24.938;2023-07-02T06:39:19;8.17;;;5.80;;
8293;SDS011;4185;41.506;24.938;2023-07-02T06:41:46;6.70;;;5.20;;
8293;SDS011;4185;41.506;24.938;2023-07-02T06:44:13;7.97;;;5.63;;
8293;SDS011;4185;41.506;24.938;2023-07-02T06:46:41;10.27;;;5.83;;
8293;SDS011;4185;41.506;24.938;2023-07-02T06:49:07;9.93;;;5.70;;
8293;SDS011;4185;41.506;24.938;2023-07-02T06:51:34;7.40;;;5.43;;
8293;SDS011;4185;41.506;24.938;2023-07-02T06:54:01;9.50;;;5.73;;
8293;SDS011;4185;41.506;24.938;2023-07-02T06:56:28;9.27;;;6.07;;
8293;SDS011;4185;41.506;24.938;2023-07-02T06:58:54;9.37;;;5.70;;
8293;SDS011;4185;41.506;24.938;2023-07-02T07:01:21;10.80;;;5.73;;
8293;SDS011;4185;41.506;24.938;2023-07-02T07:03:49;9.93;;;5.53;;
8293;SDS011;4185;41.506;24.938;2023-07-02T07:06:16;8.70;;;5.47;;
8293;SDS011;4185;41.506;24.938;2023-07-02T07:08:43;8.03;;;5.83;;
8293;SDS011;4185;41.506;24.938;2023-07-02T07:11:09;9.37;;;5.87;;
8293;SDS011;4185;41.506;24.938;2023-07-02T07:13:36;9.83;;;5.87;;
8293;SDS011;4185;41.506;24.938;2023-07-02T07:16:03;13.47;;;5.60;;
8293;SDS011;4185;41.506;24.938;2023-07-02T07:18:30;9.17;;;6.13;;
8293;SDS011;4185;41.506;24.938;2023-07-02T07:20:58;10.57;;;6.10;;
8293;SDS011;4185;41.506;24.938;2023-07-02T07:23:25;9.23;;;5.73;;
8293;SDS011;4185;41.506;24.938;2023-07-02T07:25:52;10.93;;;5.67;;
8293;SDS011;4185;41.506;24.938;2023-07-02T07:28:18;10.23;;;5.53;;
8293;SDS011;4185;41.506;24.938;2023-07-02T07:30:45;9.10;;;5.90;;
8293;SDS011;4185;41.506;24.938;2023-07-02T07:33:12;9.17;;;5.80;;
8293;SDS011;4185;41.506;24.938;2023-07-02T07:35:39;9.97;;;6.07;;
8293;SDS011;4185;41.506;24.938;2023-07-02T07:38:07;9.17;;;6.07;;
8293;SDS011;4185;41.506;24.938;2023-07-02T07:40:34;9.03;;;5.63;;
8293;SDS011;4185;41.506;24.938;2023-07-02T07:43:00;9.60;;;6.20;;
8293;SDS011;4185;41.506;24.938;2023-07-02T07:45:27;8.20;;;5.33;;
8293;SDS011;4185;41.506;24.938;2023-07-02T07:47:54;9.50;;;6.00;;
8293;SDS011;4185;41.506;24.938;2023-07-02T07:50:21;10.00;;;5.77;;
8293;SDS011;4185;41.506;24.938;2023-07-02T07:52:47;8.57;;;5.30;;
8293;SDS011;4185;41.506;24.938;2023-07-02T07:55:16;10.70;;;6.17;;
8293;SDS011;4185;41.506;24.938;2023-07-02T07:57:43;9.57;;;6.13;;
8293;SDS011;4185;41.506;24.938;2023-07-02T08:00:10;8.43;;;6.03;;
8293;SDS011;4185;41.506;24.938;2023-07-02T08:02:37;7.23;;;5.80;;
8293;SDS011;4185;41.506;24.938;2023-07-02T08:05:04;8.23;;;5.57;;
8293;SDS011;4185;41.506;24.938;2023-07-02T08:07:31;10.40;;;7.23;;
8293;SDS011;4185;41.506;24.938;2023-07-02T08:09:58;8.60;;;6.03;;
8293;SDS011;4185;41.506;24.938;2023-07-02T08:12:28;8.43;;;6.30;;
8293;SDS011;4185;41.506;24.938;2023-07-02T08:14:55;9.70;;;6.30;;
8293;SDS011;4185;41.506;24.938;2023-07-02T08:17:22;8.97;;;6.27;;
8293;SDS011;4185;41.506;24.938;2023-07-02T08:19:49;9.30;;;6.43;;
8293;SDS011;4185;41.506;24.938;2023-07-02T08:22:15;8.10;;;6.10;;
8293;SDS011;4185;41.506;24.938;2023-07-02T08:24:42;9.67;;;6.40;;
8293;SDS011;4185;41.506;24.938;2023-07-02T08:27:09;9.10;;;6.60;;
8293;SDS011;4185;41.506;24.938;2023-07-02T08:29:40;7.80;;;6.37;;
8293;SDS011;4185;41.506;24.938;2023-07-02T08:32:07;8.80;;;6.20;;
8293;SDS011;4185;41.506;24.938;2023-07-02T08:34:34;9.50;;;6.30;;
8293;SDS011;4185;41.506;24.938;2023-07-02T08:37:01;9.97;;;6.60;;
8293;SDS011;4185;41.506;24.938;2023-07-02T08:39:27;8.73;;;6.40;;
8293;SDS011;4185;41.506;24.938;2023-07-02T08:41:54;8.93;;;6.53;;
8293;SDS011;4185;41.506;24.938;2023-07-02T08:44:21;9.60;;;6.03;;
8293;SDS011;4185;41.506;24.938;2023-07-02T08:46:49;8.07;;;6.20;;
8293;SDS011;4185;41.506;24.938;2023-07-02T08:49:18;10.47;;;6.77;;
8293;SDS011;4185;41.506;24.938;2023-07-02T08:51:45;9.23;;;6.60;;
8293;SDS011;4185;41.506;24.938;2023-07-02T08:54:13;8.43;;;6.03;;
8293;SDS011;4185;41.506;24.938;2023-07-02T08:56:40;8.00;;;6.03;;
8293;SDS011;4185;41.506;24.938;2023-07-02T08:59:07;9.07;;;6.70;;
8293;SDS011;4185;41.506;24.938;2023-07-02T09:01:44;8.90;;;6.10;;
8293;SDS011;4185;41.506;24.938;2023-07-02T09:04:15;11.23;;;6.17;;
8293;SDS011;4185;41.506;24.938;2023-07-02T09:06:43;9.60;;;6.80;;
8293;SDS011;4185;41.506;24.938;2023-07-02T09:09:10;8.13;;;6.13;;
8293;SDS011;4185;41.506;24.938;2023-07-02T09:11:46;9.43;;;5.60;;
8293;SDS011;4185;41.506;24.938;2023-07-02T09:14:23;9.53;;;6.50;;
8293;SDS011;4185;41.506;24.938;2023-07-02T09:16:50;7.90;;;6.07;;
8293;SDS011;4185;41.506;24.938;2023-07-02T09:19:28;8.87;;;6.47;;
8293;SDS011;4185;41.506;24.938;2023-07-02T09:21:57;8.90;;;6.43;;
8293;SDS011;4185;41.506;24.938;2023-07-02T09:24:25;9.67;;;6.80;;
8293;SDS011;4185;41.506;24.938;2023-07-02T09:26:54;8.93;;;6.68;;
8293;SDS011;4185;41.506;24.938;2023-07-02T09:29:22;10.05;;;6.57;;
8293;SDS011;4185;41.506;24.938;2023-07-02T09:31:50;9.65;;;6.47;;
8293;SDS011;4185;41.506;24.938;2023-07-02T09:34:17;10.23;;;6.87;;
8293;SDS011;4185;41.506;24.938;2023-07-02T09:36:47;9.77;;;6.32;;
8293;SDS011;4185;41.506;24.938;2023-07-02T09:39:14;9.05;;;6.72;;
8293;SDS011;4185;41.506;24.938;2023-07-02T09:41:47;8.43;;;6.57;;
8293;SDS011;4185;41.506;24.938;2023-07-02T09:44:16;7.97;;;6.55;;
8293;SDS011;4185;41.506;24.938;2023-07-02T09:46:45;9.00;;;6.55;;
8293;SDS011;4185;41.506;24.938;2023-07-02T09:49:16;9.68;;;6.28;;
8293;SDS011;4185;41.506;24.938;2023-07-02T09:51:48;9.00;;;6.47;;
8293;SDS011;4185;41.506;24.938;2023-07-02T09:54:16;8.00;;;6.20;;
8293;SDS011;4185;41.506;24.938;2023-07-02T09:56:45;9.75;;;6.32;;
8293;SDS011;4185;41.506;24.938;2023-07-02T09:59:12;8.55;;;6.53;;
8293;SDS011;4185;41.506;24.938;2023-07-02T10:01:39;8.80;;;6.75;;
8293;SDS011;4185;41.506;24.938;2023-07-02T10:04:12;8.15;;;6.43;;
8293;SDS011;4185;41.506;24.938;2023-07-02T10:06:44;8.02;;;5.93;;
8293;SDS011;4185;41.506;24.938;2023-07-02T10:09:12;7.40;;;6.35;;
8293;SDS011;4185;41.506;24.938;2023-07-02T10:11:39;9.98;;;6.85;;
8293;SDS011;4185;41.506;24.938;2023-07-02T10:14:06;9.00;;;6.18;;
8293;SDS011;4185;41.506;24.938;2023-07-02T10:16:33;9.07;;;6.70;;
8293;SDS011;4185;41.506;24.938;2023-07-02T10:19:09;8.75;;;7.07;;
8293;SDS011;4185;41.506;24.938;2023-07-02T10:21:36;8.65;;;6.63;;
8293;SDS011;4185;41.506;24.938;2023-07-02T10:24:09;9.45;;;6.57;;
8293;SDS011;4185;41.506;24.938;2023-07-02T10:26:38;10.90;;;6.70;;
8293;SDS011;4185;41.506;24.938;2023-07-02T10:29:06;9.10;;;6.43;;
8293;SDS011;4185;41.506;24.938;2023-07-02T10:31:32;9.95;;;7.28;;
8293;SDS011;4185;41.506;24.938;2023-07-02T10:33:59;10.18;;;6.93;;
8293;SDS011;4185;41.506;24.938;2023-07-02T10:36:26;8.85;;;7.13;;
8293;SDS011;4185;41.506;24.938;2023-07-02T10:38:53;9.00;;;6.40;;
8293;SDS011;4185;41.506;24.938;2023-07-02T10:41:23;8.52;;;6.47;;
8293;SDS011;4185;41.506;24.938;2023-07-02T10:43:52;9.00;;;7.03;;
8293;SDS011;4185;41.506;24.938;2023-07-02T10:46:20;8.88;;;6.30;;
8293;SDS011;4185;41.506;24.938;2023-07-02T10:48:53;8.30;;;6.68;;
8293;SDS011;4185;41.506;24.938;2023-07-02T10:51:20;11.75;;;6.95;;
8293;SDS011;4185;41.506;24.938;2023-07-02T10:53:56;11.25;;;7.03;;
8293;SDS011;4185;41.506;24.938;2023-07-02T10:56:23;10.45;;;7.65;;
8293;SDS011;4185;41.506;24.938;2023-07-02T10:58:50;12.60;;;7.18;;
8293;SDS011;4185;41.506;24.938;2023-07-02T11:01:22;8.57;;;6.47;;
8293;SDS011;4185;41.506;24.938;2023-07-02T11:03:55;8.07;;;6.30;;
8293;SDS011;4185;41.506;24.938;2023-07-02T11:06:22;9.88;;;6.53;;
8293;SDS011;4185;41.506;24.938;2023-07-02T11:08:49;9.27;;;7.07;;
8293;SDS011;4185;41.506;24.938;2023-07-02T11:11:16;9.77;;;6.47;;
8293;SDS011;4185;41.506;24.938;2023-07-02T11:13:46;8.55;;;6.18;;
8293;SDS011;4185;41.506;24.938;2023-07-02T11:16:25;8.38;;;7.00;;
8293;SDS011;4185;41.506;24.938;2023-07-02T11:18:54;8.40;;;6.82;;
8293;SDS011;4185;41.506;24.938;2023-07-02T11:21:32;8.80;;;6.85;;
8293;SDS011;4185;41.506;24.938;2023-07-02T11:24:02;8.98;;;7.43;;
8293;SDS011;4185;41.506;24.938;2023-07-02T11:26:34;8.15;;;6.43;;
8293;SDS011;4185;41.506;24.938;2023-07-02T11:29:01;11.60;;;6.93;;
8293;SDS011;4185;41.506;24.938;2023-07-02T11:31:29;8.55;;;6.72;;
8293;SDS011;4185;41.506;24.938;2023-07-02T11:33:56;8.75;;;7.10;;
8293;SDS011;4185;41.506;24.938;2023-07-02T11:36:23;8.45;;;6.43;;
8293;SDS011;4185;41.506;24.938;2023-07-02T11:38:51;8.98;;;7.18;;
8293;SDS011;4185;41.506;24.938;2023-07-02T11:41:18;8.68;;;6.32;;
8293;SDS011;4185;41.506;24.938;2023-07-02T11:43:46;9.23;;;7.13;;
8293;SDS011;4185;41.506;24.938;2023-07-02T11:46:13;8.15;;;6.80;;
8293;SDS011;4185;41.506;24.938;2023-07-02T11:48:42;7.88;;;6.38;;
8293;SDS011;4185;41.506;24.938;2023-07-02T11:51:08;9.48;;;6.38;;
8293;SDS011;4185;41.506;24.938;2023-07-02T11:53:35;9.10;;;6.95;;
8293;SDS011;4185;41.506;24.938;2023-07-02T11:56:02;8.75;;;7.20;;
8293;SDS011;4185;41.506;24.938;2023-07-02T11:58:29;10.48;;;8.10;;
8293;SDS011;4185;41.506;24.938;2023-07-02T12:00:55;7.75;;;6.53;;
8293;SDS011;4185;41.506;24.938;2023-07-02T12:03:22;8.40;;;7.13;;
8293;SDS011;4185;41.506;24.938;2023-07-02T12:05:50;10.07;;;7.90;;
8293;SDS011;4185;41.506;24.938;2023-07-02T12:08:17;10.45;;;7.60;;
8293;SDS011;4185;41.506;24.938;2023-07-02T12:10:44;8.02;;;6.82;;
8293;SDS011;4185;41.506;24.938;2023-07-02T12:13:11;9.88;;;7.13;;
8293;SDS011;4185;41.506;24.938;2023-07-02T12:15:37;8.60;;;7.40;;
8293;SDS011;4185;41.506;24.938;2023-07-02T12:18:04;9.65;;;7.55;;
8293;SDS011;4185;41.506;24.938;2023-07-02T12:20:31;9.13;;;7.15;;
8293;SDS011;4185;41.506;24.938;2023-07-02T12:22:59;8.68;;;7.43;;
8293;SDS011;4185;41.506;24.938;2023-07-02T12:25:26;9.63;;;7.88;;
8293;SDS011;4185;41.506;24.938;2023-07-02T12:27:53;8.70;;;7.45;;
8293;SDS011;4185;41.506;24.938;2023-07-02T12:30:19;10.23;;;7.55;;
8293;SDS011;4185;41.506;24.938;2023-07-02T12:32:46;8.27;;;6.97;;
8293;SDS011;4185;41.506;24.938;2023-07-02T12:35:13;12.52;;;7.60;;
8293;SDS011;4185;41.506;24.938;2023-07-02T12:37:43;9.20;;;6.82;;
8293;SDS011;4185;41.506;24.938;2023-07-02T12:40:12;9.73;;;7.07;;
8293;SDS011;4185;41.506;24.938;2023-07-02T12:42:40;11.55;;;7.15;;
8293;SDS011;4185;41.506;24.938;2023-07-02T12:45:07;9.15;;;6.78;;
8293;SDS011;4185;41.506;24.938;2023-07-02T12:47:35;9.15;;;7.78;;
8293;SDS011;4185;41.506;24.938;2023-07-02T12:50:02;9.05;;;7.00;;
8293;SDS011;4185;41.506;24.938;2023-07-02T12:52:29;11.55;;;7.72;;
8293;SDS011;4185;41.506;24.938;2023-07-02T12:54:56;9.02;;;7.53;;
8293;SDS011;4185;41.506;24.938;2023-07-02T12:57:24;10.30;;;7.43;;
8293;SDS011;4185;41.506;24.938;2023-07-02T12:59:51;7.90;;;6.65;;
8293;SDS011;4185;41.506;24.938;2023-07-02T13:02:18;9.30;;;6.97;;
8293;SDS011;4185;41.506;24.938;2023-07-02T13:04:45;8.63;;;7.25;;
8293;SDS011;4185;41.506;24.938;2023-07-02T13:07:11;9.40;;;6.85;;
8293;SDS011;4185;41.506;24.938;2023-07-02T13:09:38;9.73;;;7.70;;
8293;SDS011;4185;41.506;24.938;2023-07-02T13:12:05;9.40;;;7.13;;
8293;SDS011;4185;41.506;24.938;2023-07-02T13:14:33;8.15;;;7.10;;
8293;SDS011;4185;41.506;24.938;2023-07-02T13:17:01;11.18;;;7.72;;
8293;SDS011;4185;41.506;24.938;2023-07-02T13:19:30;9.50;;;7.25;;
8293;SDS011;4185;41.506;24.938;2023-07-02T13:21:57;11.18;;;7.03;;
8293;SDS011;4185;41.506;24.938;2023-07-02T13:24:24;8.55;;;7.35;;
8293;SDS011;4185;41.506;24.938;2023-07-02T13:26:50;9.10;;;7.25;;
8293;SDS011;4185;41.506;24.938;2023-07-02T13:29:17;7.60;;;6.63;;
8293;SDS011;4185;41.506;24.938;2023-07-02T13:31:45;8.32;;;6.72;;
8293;SDS011;4185;41.506;24.938;2023-07-02T13:34:12;8.50;;;7.03;;
8293;SDS011;4185;41.506;24.938;2023-07-02T13:36:39;10.32;;;7.90;;
8293;SDS011;4185;41.506;24.938;2023-07-02T13:39:06;8.25;;;7.13;;
8293;SDS011;4185;41.506;24.938;2023-07-02T13:41:32;8.85;;;7.53;;
8293;SDS011;4185;41.506;24.938;2023-07-02T13:43:59;8.40;;;7.25;;
8293;SDS011;4185;41.506;24.938;2023-07-02T13:46:26;7.18;;;6.30;;
8293;SDS011;4185;41.506;24.938;2023-07-02T13:48:54;8.05;;;6.60;;
8293;SDS011;4185;41.506;24.938;2023-07-02T13:51:21;7.53;;;6.55;;
8293;SDS011;4185;41.506;24.938;2023-07-02T13:53:48;8.55;;;7.05;;
8293;SDS011;4185;41.506;24.938;2023-07-02T13:56:14;7.50;;;6.75;;
8293;SDS011;4185;41.506;24.938;2023-07-02T13:58:59;7.30;;;6.45;;
8293;SDS011;4185;41.506;24.938;2023-07-02T14:01:27;9.05;;;7.22;;
8293;SDS011;4185;41.506;24.938;2023-07-02T14:03:54;9.38;;;6.35;;
8293;SDS011;4185;41.506;24.938;2023-07-02T14:06:20;10.48;;;6.55;;
8293;SDS011;4185;41.506;24.938;2023-07-02T14:08:47;7.55;;;6.68;;
8293;SDS011;4185;41.506;24.938;2023-07-02T14:11:20;9.38;;;7.80;;
8293;SDS011;4185;41.506;24.938;2023-07-02T14:13:48;8.85;;;7.45;;
8293;SDS011;4185;41.506;24.938;2023-07-02T14:16:16;9.80;;;7.80;;
8293;SDS011;4185;41.506;24.938;2023-07-02T14:18:43;9.70;;;7.85;;
8293;SDS011;4185;41.506;24.938;2023-07-02T14:21:10;12.05;;;7.45;;
8293;SDS011;4185;41.506;24.938;2023-07-02T14:23:37;10.95;;;7.07;;
8293;SDS011;4185;41.506;24.938;2023-07-02T14:26:04;9.90;;;7.43;;
8293;SDS011;4185;41.506;24.938;2023-07-02T14:28:31;11.27;;;6.70;;
8293;SDS011;4185;41.506;24.938;2023-07-02T14:30:58;9.63;;;7.10;;
8293;SDS011;4185;41.506;24.938;2023-07-02T14:33:27;10.02;;;6.53;;
8293;SDS011;4185;41.506;24.938;2023-07-02T14:35:55;7.82;;;6.20;;
8293;SDS011;4185;41.506;24.938;2023-07-02T14:38:23;8.40;;;6.93;;
8293;SDS011;4185;41.506;24.938;2023-07-02T14:40:50;9.02;;;7.03;;
8293;SDS011;4185;41.506;24.938;2023-07-02T14:43:19;8.95;;;7.05;;
8293;SDS011;4185;41.506;24.938;2023-07-02T14:45:47;9.60;;;7.50;;
8293;SDS011;4185;41.506;24.938;2023-07-02T14:48:16;11.40;;;7.72;;
8293;SDS011;4185;41.506;24.938;2023-07-02T14:50:47;9.25;;;7.22;;
8293;SDS011;4185;41.506;24.938;2023-07-02T14:53:15;9.90;;;7.60;;
8293;SDS011;4185;41.506;24.938;2023-07-02T14:55:43;8.90;;;7.05;;
8293;SDS011;4185;41.506;24.938;2023-07-02T14:58:10;14.50;;;7.30;;
8293;SDS011;4185;41.506;24.938;2023-07-02T15:00:42;10.25;;;6.30;;